createdAt,value
2018-02-23T00:01:32.834Z,13.70
2018-02-23T00:04:00.416Z,12.35
2018-02-23T00:06:28.352Z,13.57
2018-02-23T00:08:55.916Z,14.82
2018-02-23T00:11:24.250Z,14.55
2018-02-23T00:13:51.831Z,13.62
2018-02-23T00:16:20.134Z,12.77
2018-02-23T00:18:47.728Z,14.07
2018-02-23T00:21:15.361Z,13.43
2018-02-23T00:23:42.914Z,15.00
2018-02-23T00:26:10.482Z,14.00
2018-02-23T00:28:38.183Z,13.38
2018-02-23T00:31:05.730Z,13.30
2018-02-23T00:33:33.276Z,14.20
2018-02-23T00:36:00.924Z,14.43
2018-02-23T00:38:28.490Z,14.52
2018-02-23T00:40:56.054Z,14.57
2018-02-23T00:43:23.657Z,14.60
2018-02-23T00:45:51.184Z,14.05
2018-02-23T00:48:18.702Z,13.65
2018-02-23T00:50:46.241Z,16.17
2018-02-23T00:53:14.648Z,16.52
2018-02-23T00:55:42.211Z,15.73
2018-02-23T00:58:10.587Z,14.68
2018-02-23T01:00:38.163Z,17.90
2018-02-23T01:03:05.706Z,14.75
2018-02-23T01:05:34.187Z,15.15
2018-02-23T01:08:01.737Z,13.98
2018-02-23T01:10:29.588Z,17.12
2018-02-23T01:12:57.169Z,16.15
2018-02-23T01:15:24.725Z,14.65
2018-02-23T01:17:52.252Z,14.65
2018-02-23T01:20:19.790Z,16.77
2018-02-23T01:22:47.341Z,16.70
2018-02-23T01:25:14.920Z,14.82
2018-02-23T01:27:42.470Z,15.20
2018-02-23T01:30:10.062Z,15.73
2018-02-23T01:32:37.632Z,15.73
2018-02-23T01:35:05.904Z,14.87
2018-02-23T01:37:33.441Z,16.33
2018-02-23T01:40:01.025Z,15.52
2018-02-23T01:42:29.537Z,16.23
2018-02-23T01:44:57.889Z,15.45
2018-02-23T01:47:25.410Z,18.30
2018-02-23T01:49:53.074Z,16.15
2018-02-23T01:52:20.607Z,17.70
2018-02-23T01:54:48.147Z,15.35
2018-02-23T01:57:16.521Z,16.50
2018-02-23T01:59:44.108Z,15.88
2018-02-23T02:02:12.283Z,17.73
2018-02-23T02:04:39.846Z,18.52
2018-02-23T02:07:08.300Z,18.90
2018-02-23T02:09:35.879Z,17.75
2018-02-23T02:12:04.574Z,17.48
2018-02-23T02:14:32.140Z,17.30
2018-02-23T02:16:59.752Z,20.15
2018-02-23T02:19:27.316Z,18.50
2018-02-23T02:21:54.877Z,19.35
2018-02-23T02:24:23.246Z,20.40
2018-02-23T02:26:50.840Z,17.85
2018-02-23T02:29:18.378Z,18.70
2018-02-23T02:31:46.000Z,20.55
2018-02-23T02:34:14.312Z,19.02
2018-02-23T02:36:41.908Z,21.45
2018-02-23T02:39:10.214Z,20.50
2018-02-23T02:41:37.826Z,21.00
2018-02-23T02:44:05.414Z,19.40
2018-02-23T02:46:33.762Z,19.00
2018-02-23T02:49:02.674Z,21.98
2018-02-23T02:51:30.487Z,21.77
2018-02-23T02:53:58.046Z,21.30
2018-02-23T02:56:25.609Z,22.05
2018-02-23T02:58:53.136Z,22.13
2018-02-23T03:01:21.495Z,21.08
2018-02-23T03:03:49.101Z,20.62
2018-02-23T03:06:16.667Z,20.25
2018-02-23T03:08:44.249Z,20.85
2018-02-23T03:11:11.782Z,19.95
2018-02-23T03:13:39.418Z,20.40
2018-02-23T03:16:07.767Z,19.12
2018-02-23T03:18:35.365Z,21.92
2018-02-23T03:21:02.934Z,20.12
2018-02-23T03:23:32.148Z,22.17
2018-02-23T03:25:59.710Z,20.23
2018-02-23T03:28:27.252Z,22.42
2018-02-23T03:30:55.397Z,21.98
2018-02-23T03:33:22.937Z,21.25
2018-02-23T03:35:50.446Z,21.00
2018-02-23T03:38:17.982Z,26.20
2018-02-23T03:40:45.540Z,24.02
2018-02-23T03:43:13.070Z,20.90
2018-02-23T03:45:40.702Z,21.77
2018-02-23T03:48:08.243Z,25.20
2018-02-23T03:50:35.797Z,25.12
2018-02-23T03:53:03.367Z,26.48
2018-02-23T03:55:30.906Z,23.02
2018-02-23T03:57:58.483Z,25.42
2018-02-23T04:00:26.029Z,25.52
2018-02-23T04:02:53.658Z,22.33
2018-02-23T04:05:21.641Z,23.40
2018-02-23T04:07:49.205Z,24.35
2018-02-23T04:10:16.730Z,24.08
2018-02-23T04:12:44.267Z,26.55
2018-02-23T04:15:12.688Z,25.23
2018-02-23T04:17:40.271Z,25.90
2018-02-23T04:20:08.571Z,25.48
2018-02-23T04:22:36.132Z,25.70
2018-02-23T04:25:04.045Z,23.27
2018-02-23T04:27:31.596Z,26.73
2018-02-23T04:29:59.287Z,27.37
2018-02-23T04:32:26.884Z,23.80
2018-02-23T04:34:54.422Z,27.67
2018-02-23T04:37:22.788Z,24.77
2018-02-23T04:39:51.487Z,25.52
2018-02-23T04:42:19.781Z,29.12
2018-02-23T04:44:48.598Z,23.85
2018-02-23T04:47:16.191Z,26.58
2018-02-23T04:49:43.756Z,28.65
2018-02-23T04:52:11.393Z,27.27
2018-02-23T04:54:39.541Z,28.67
2018-02-23T04:57:07.861Z,26.65
2018-02-23T04:59:35.602Z,26.17
2018-02-23T05:02:03.907Z,28.40
2018-02-23T05:04:36.656Z,26.30
2018-02-23T05:07:04.296Z,24.10
2018-02-23T05:09:31.902Z,25.00
2018-02-23T05:11:59.511Z,27.75
2018-02-23T05:14:27.073Z,24.45
2018-02-23T05:16:56.296Z,24.83
2018-02-23T05:19:23.880Z,27.33
2018-02-23T05:21:52.193Z,27.40
2018-02-23T05:24:20.541Z,24.25
2018-02-23T05:26:48.385Z,25.48
2018-02-23T05:29:16.740Z,24.27
2018-02-23T05:31:45.068Z,23.25
2018-02-23T05:34:12.950Z,22.83
2018-02-23T05:36:40.524Z,24.35
2018-02-23T05:39:09.706Z,25.35
2018-02-23T05:41:37.303Z,25.65
2018-02-23T05:44:05.207Z,26.30
2018-02-23T05:46:34.904Z,25.55
2018-02-23T05:49:02.507Z,25.62
2018-02-23T05:51:30.843Z,24.92
2018-02-23T05:53:58.413Z,22.95
2018-02-23T05:56:28.091Z,19.73
2018-02-23T05:58:55.628Z,24.37
2018-02-23T06:01:24.202Z,21.95
2018-02-23T06:03:52.758Z,22.98
2018-02-23T06:06:21.112Z,22.75
2018-02-23T06:08:48.829Z,20.85
2018-02-23T06:11:16.392Z,21.05
2018-02-23T06:13:44.005Z,23.15
2018-02-23T06:16:17.892Z,23.20
2018-02-23T06:18:51.216Z,23.20
2018-02-23T06:21:19.485Z,20.40
2018-02-23T06:23:47.771Z,20.40
2018-02-23T06:26:15.376Z,21.25
2018-02-23T06:28:42.933Z,20.40
2018-02-23T06:31:11.277Z,23.30
2018-02-23T06:33:38.884Z,22.25
2018-02-23T06:36:06.427Z,20.23
2018-02-23T06:38:34.770Z,21.27
2018-02-23T06:41:02.895Z,19.35
2018-02-23T06:43:31.480Z,21.15
2018-02-23T06:45:59.044Z,20.20
2018-02-23T06:48:26.584Z,19.85
2018-02-23T06:50:54.159Z,17.73
2018-02-23T06:53:21.727Z,18.98
2018-02-23T06:55:55.399Z,16.60
2018-02-23T06:58:22.944Z,19.40
2018-02-23T07:00:50.876Z,22.25
2018-02-23T07:03:19.285Z,19.48
2018-02-23T07:05:46.977Z,17.92
2018-02-23T07:08:14.763Z,18.67
2018-02-23T07:10:43.169Z,18.37
2018-02-23T07:13:10.809Z,18.83
2018-02-23T07:15:38.362Z,20.05
2018-02-23T07:18:05.928Z,19.33
2018-02-23T07:20:33.552Z,17.65
2018-02-23T07:23:01.151Z,18.90
2018-02-23T07:25:28.801Z,18.27
2018-02-23T07:27:56.368Z,17.30
2018-02-23T07:30:23.928Z,17.85
2018-02-23T07:32:51.518Z,18.00
2018-02-23T07:35:19.870Z,17.83
2018-02-23T07:37:47.478Z,21.17
2018-02-23T07:40:15.920Z,20.17
2018-02-23T07:42:43.517Z,17.35
2018-02-23T07:45:11.874Z,17.90
2018-02-23T07:47:39.421Z,18.15
2018-02-23T07:50:07.005Z,16.55
2018-02-23T07:52:35.442Z,15.95
2018-02-23T07:55:04.226Z,13.02
2018-02-23T07:57:31.832Z,14.20
2018-02-23T07:59:59.483Z,12.85
2018-02-23T08:02:27.055Z,14.45
2018-02-23T08:04:54.578Z,12.68
2018-02-23T08:07:22.153Z,13.00
2018-02-23T08:09:49.693Z,13.23
2018-02-23T08:12:17.285Z,11.38
2018-02-23T08:14:44.894Z,12.20
2018-02-23T08:17:13.154Z,9.93
2018-02-23T08:19:41.511Z,10.23
2018-02-23T08:22:09.108Z,9.38
2018-02-23T08:24:36.692Z,10.05
2018-02-23T08:27:04.258Z,9.00
2018-02-23T08:29:32.632Z,11.05
2018-02-23T08:32:00.216Z,11.98
2018-02-23T08:34:27.853Z,10.63
2018-02-23T08:36:55.421Z,10.38
2018-02-23T08:39:23.042Z,10.95
2018-02-23T08:41:50.631Z,11.00
2018-02-23T08:44:19.087Z,11.57
2018-02-23T08:46:47.468Z,10.75
2018-02-23T08:49:15.011Z,12.20
2018-02-23T08:51:42.588Z,10.82
2018-02-23T08:54:10.110Z,8.13
2018-02-23T08:56:37.729Z,10.52
2018-02-23T08:59:05.257Z,10.80
2018-02-23T09:01:32.885Z,9.88
2018-02-23T09:04:00.544Z,9.95
2018-02-23T09:06:28.138Z,12.73
2018-02-23T09:08:55.776Z,9.60
2018-02-23T09:11:23.303Z,9.23
2018-02-23T09:13:51.644Z,9.95
2018-02-23T09:16:19.155Z,9.48
2018-02-23T09:18:46.774Z,11.18
2018-02-23T09:21:15.268Z,10.15
2018-02-23T09:23:42.823Z,9.73
2018-02-23T09:26:11.150Z,9.40
2018-02-23T09:28:38.762Z,11.65
2018-02-23T09:31:06.378Z,10.60
2018-02-23T09:33:46.005Z,11.25
2018-02-23T09:36:13.574Z,9.80
2018-02-23T09:38:41.141Z,10.60
2018-02-23T09:41:08.738Z,10.40
2018-02-23T09:43:36.315Z,10.43
2018-02-23T09:46:04.071Z,10.52
2018-02-23T09:48:31.706Z,10.90
2018-02-23T09:50:59.439Z,10.50
2018-02-23T09:53:27.047Z,8.77
2018-02-23T09:55:54.586Z,9.63
2018-02-23T09:58:22.835Z,8.70
2018-02-23T10:00:50.417Z,8.70
2018-02-23T10:03:18.859Z,9.32
2018-02-23T10:05:47.166Z,8.25
2018-02-23T10:08:15.714Z,9.77
2018-02-23T10:10:43.349Z,5.95
2018-02-23T10:13:10.899Z,9.25
2018-02-23T10:15:38.505Z,8.70
2018-02-23T10:18:06.040Z,8.00
2018-02-23T10:20:33.600Z,7.05
2018-02-23T10:23:01.159Z,7.75
2018-02-23T10:25:28.680Z,6.85
2018-02-23T10:27:56.223Z,6.90
2018-02-23T10:30:23.738Z,6.87
2018-02-23T10:32:51.316Z,6.50
2018-02-23T10:35:18.855Z,6.15
2018-02-23T10:37:46.401Z,5.65
2018-02-23T10:40:13.956Z,7.00
2018-02-23T10:42:41.529Z,7.50
2018-02-23T10:45:10.038Z,4.87
2018-02-23T10:47:37.571Z,6.05
2018-02-23T10:50:05.135Z,5.80
2018-02-23T10:52:32.710Z,4.45
2018-02-23T10:55:00.271Z,5.50
2018-02-23T10:57:28.593Z,4.68
2018-02-23T10:59:56.124Z,5.37
2018-02-23T11:02:23.681Z,4.95
2018-02-23T11:04:51.265Z,4.43
2018-02-23T11:07:18.857Z,5.70
2018-02-23T11:09:46.469Z,4.60
2018-02-23T11:12:14.944Z,6.82
2018-02-23T11:14:42.493Z,5.65
2018-02-23T11:17:10.039Z,5.50
2018-02-23T11:19:38.409Z,5.55
2018-02-23T11:22:06.740Z,6.45
2018-02-23T11:24:34.335Z,6.30
2018-02-23T11:27:01.909Z,7.68
2018-02-23T11:29:29.485Z,5.68
2018-02-23T11:31:57.124Z,5.78
2018-02-23T11:34:25.069Z,6.65
2018-02-23T11:36:53.765Z,7.37
2018-02-23T11:39:21.328Z,7.43
2018-02-23T11:41:48.977Z,6.95
2018-02-23T11:44:16.556Z,6.93
2018-02-23T11:46:44.178Z,5.28
2018-02-23T11:49:11.721Z,6.50
2018-02-23T11:51:40.110Z,7.50
2018-02-23T11:54:07.643Z,8.50
2018-02-23T11:56:35.957Z,7.40
2018-02-23T11:59:03.563Z,8.80
2018-02-23T12:01:31.103Z,8.02
2018-02-23T12:03:58.652Z,9.13
2018-02-23T12:06:26.216Z,8.52
2018-02-23T12:08:53.788Z,7.78
2018-02-23T12:11:21.387Z,10.15
2018-02-23T12:13:48.985Z,9.23
2018-02-23T12:16:17.669Z,9.43
2018-02-23T12:18:45.216Z,9.02
2018-02-23T12:21:12.772Z,7.12
2018-02-23T12:23:40.348Z,7.25
2018-02-23T12:26:08.898Z,9.13
2018-02-23T12:28:36.506Z,10.25
2018-02-23T12:31:04.112Z,8.15
2018-02-23T12:33:32.553Z,8.60
2018-02-23T12:36:00.369Z,8.80
2018-02-23T12:38:28.045Z,11.18
2018-02-23T12:40:57.527Z,7.47
2018-02-23T12:43:25.158Z,7.35
2018-02-23T12:45:52.732Z,8.20
2018-02-23T12:48:20.374Z,7.95
2018-02-23T12:50:47.918Z,9.00
2018-02-23T12:53:15.472Z,8.85
2018-02-23T12:55:43.127Z,8.52
2018-02-23T12:58:11.435Z,7.40
2018-02-23T13:00:38.965Z,8.05
2018-02-23T13:03:07.371Z,6.28
2018-02-23T13:05:34.916Z,7.65
2018-02-23T13:08:02.469Z,10.25
2018-02-23T13:10:30.026Z,8.20
2018-02-23T13:12:57.570Z,8.10
2018-02-23T13:15:25.126Z,7.85
2018-02-23T13:17:52.677Z,7.90
2018-02-23T13:20:21.032Z,6.93
2018-02-23T13:22:48.870Z,7.25
2018-02-23T13:25:16.461Z,7.25
2018-02-23T13:27:49.635Z,9.38
2018-02-23T13:30:17.306Z,6.53
2018-02-23T13:32:44.883Z,6.70
2018-02-23T13:35:12.444Z,7.70
2018-02-23T13:37:40.010Z,8.15
2018-02-23T13:40:07.569Z,7.05
2018-02-23T13:42:35.867Z,6.65
2018-02-23T13:45:04.494Z,6.80
2018-02-23T13:47:32.342Z,5.97
2018-02-23T13:49:59.965Z,6.95
2018-02-23T13:52:27.524Z,5.95
2018-02-23T13:54:56.186Z,7.93
2018-02-23T13:57:23.764Z,7.80
2018-02-23T13:59:51.426Z,6.03
2018-02-23T14:02:19.993Z,7.97
2018-02-23T14:04:47.554Z,4.95
2018-02-23T14:07:20.887Z,7.95
2018-02-23T14:09:48.452Z,5.95
2018-02-23T14:12:16.004Z,6.45
2018-02-23T14:14:43.583Z,6.43
2018-02-23T14:17:11.116Z,7.20
2018-02-23T14:19:38.661Z,7.60
2018-02-23T14:22:06.279Z,5.80
2018-02-23T14:24:34.607Z,6.85
2018-02-23T14:27:02.171Z,7.05
2018-02-23T14:29:29.739Z,6.72
2018-02-23T14:31:58.140Z,7.12
2018-02-23T14:34:25.780Z,6.15
2018-02-23T14:36:53.300Z,7.05
2018-02-23T14:39:21.031Z,6.07
2018-02-23T14:41:48.529Z,7.05
2018-02-23T14:44:16.118Z,6.45
2018-02-23T14:46:44.644Z,7.40
2018-02-23T14:49:20.222Z,7.55
2018-02-23T14:51:48.533Z,7.00
2018-02-23T14:54:16.913Z,6.95
2018-02-23T14:56:44.520Z,6.05
2018-02-23T14:59:12.963Z,7.40
2018-02-23T15:01:41.450Z,7.53
2018-02-23T15:04:09.204Z,6.60
2018-02-23T15:06:37.625Z,6.25
2018-02-23T15:09:05.198Z,6.97
2018-02-23T15:11:32.806Z,6.22
2018-02-23T15:14:01.907Z,6.53
2018-02-23T15:16:31.075Z,6.82
2018-02-23T15:18:58.684Z,6.65
2018-02-23T15:21:26.551Z,7.10
2018-02-23T15:23:54.066Z,7.12
2018-02-23T15:26:21.770Z,8.20
2018-02-23T15:28:49.334Z,7.00
2018-02-23T15:31:28.657Z,7.47
2018-02-23T15:33:56.198Z,7.82
2018-02-23T15:36:23.802Z,7.85
2018-02-23T15:38:51.430Z,5.95
2018-02-23T15:41:19.795Z,6.70
2018-02-23T15:43:47.417Z,6.25
2018-02-23T15:46:14.990Z,6.82
2018-02-23T15:48:48.261Z,7.45
2018-02-23T15:51:21.524Z,8.23
2018-02-23T15:53:49.089Z,9.35
2018-02-23T15:56:16.685Z,6.87
2018-02-23T15:58:45.037Z,7.97
2018-02-23T16:01:12.653Z,7.55
2018-02-23T16:03:40.266Z,7.10
2018-02-23T16:06:07.848Z,7.82
2018-02-23T16:08:35.413Z,6.18
2018-02-23T16:11:02.998Z,8.00
2018-02-23T16:13:30.580Z,8.13
2018-02-23T16:15:58.126Z,8.25
2018-02-23T16:18:25.664Z,8.50
2018-02-23T16:20:53.267Z,9.32
2018-02-23T16:23:20.818Z,7.90
2018-02-23T16:25:49.125Z,7.90
2018-02-23T16:28:16.771Z,8.48
2018-02-23T16:30:44.411Z,9.02
2018-02-23T16:33:12.013Z,8.40
2018-02-23T16:35:39.691Z,10.30
2018-02-23T16:38:07.244Z,9.63
2018-02-23T16:40:35.567Z,9.52
2018-02-23T16:43:03.978Z,10.35
2018-02-23T16:45:31.550Z,9.95
2018-02-23T16:48:00.023Z,10.00
2018-02-23T16:50:27.659Z,10.73
2018-02-23T16:52:55.978Z,9.80
2018-02-23T16:55:23.569Z,9.80
2018-02-23T16:57:51.085Z,9.85
2018-02-23T17:00:18.734Z,11.60
2018-02-23T17:02:46.315Z,11.12
2018-02-23T17:05:13.887Z,10.48
2018-02-23T17:07:42.322Z,11.12
2018-02-23T17:10:09.917Z,11.85
2018-02-23T17:12:37.532Z,14.25
2018-02-23T17:15:05.929Z,9.55
2018-02-23T17:17:33.593Z,11.60
2018-02-23T17:20:01.155Z,11.50
2018-02-23T17:22:29.642Z,11.70
2018-02-23T17:24:57.315Z,9.25
2018-02-23T17:27:24.896Z,12.57
2018-02-23T17:29:52.615Z,12.65
2018-02-23T17:32:20.212Z,12.07
2018-02-23T17:34:47.857Z,16.30
2018-02-23T17:37:15.441Z,11.35
2018-02-23T17:39:43.874Z,12.80
2018-02-23T17:42:11.474Z,14.10
2018-02-23T17:44:40.207Z,12.73
2018-02-23T17:47:08.585Z,13.35
2018-02-23T17:49:36.163Z,11.55
2018-02-23T17:52:03.775Z,14.38
2018-02-23T17:54:31.362Z,13.30
2018-02-23T17:56:59.011Z,12.98
2018-02-23T17:59:26.612Z,13.55
2018-02-23T18:01:54.178Z,13.60
2018-02-23T18:04:21.778Z,12.80
2018-02-23T18:06:49.331Z,13.00
2018-02-23T18:09:16.938Z,14.85
2018-02-23T18:11:44.511Z,12.65
2018-02-23T18:14:12.103Z,13.93
2018-02-23T18:16:39.671Z,13.75
2018-02-23T18:19:07.298Z,14.02
2018-02-23T18:21:34.997Z,13.65
2018-02-23T18:24:02.671Z,16.23
2018-02-23T18:26:30.717Z,18.23
2018-02-23T18:28:59.065Z,14.20
2018-02-23T18:31:26.691Z,16.02
2018-02-23T18:33:55.053Z,14.15
2018-02-23T18:36:22.622Z,14.95
2018-02-23T18:38:50.161Z,14.10
2018-02-23T18:41:17.754Z,14.50
2018-02-23T18:43:45.332Z,14.70
2018-02-23T18:46:13.636Z,13.82
2018-02-23T18:48:41.252Z,14.32
2018-02-23T18:51:09.586Z,16.92
2018-02-23T18:53:37.290Z,14.23
2018-02-23T18:56:05.629Z,13.75
2018-02-23T18:58:33.939Z,16.62
2018-02-23T19:01:02.260Z,16.85
2018-02-23T19:03:29.825Z,14.38
2018-02-23T19:05:57.397Z,14.40
2018-02-23T19:08:25.024Z,14.68
2018-02-23T19:10:52.631Z,15.02
2018-02-23T19:13:20.285Z,15.50
2018-02-23T19:15:48.610Z,15.65
2018-02-23T19:18:16.200Z,16.62
2018-02-23T19:20:43.774Z,15.40
2018-02-23T19:23:11.362Z,14.18
2018-02-23T19:25:38.937Z,13.77
2018-02-23T19:28:06.501Z,14.63
2018-02-23T19:30:34.090Z,13.48
2018-02-23T19:33:01.728Z,14.38
2018-02-23T19:35:30.018Z,13.65
2018-02-23T19:37:58.449Z,14.13
2018-02-23T19:40:26.068Z,11.15
2018-02-23T19:42:53.662Z,15.30
2018-02-23T19:45:21.235Z,15.68
2018-02-23T19:47:48.867Z,13.73
2018-02-23T19:50:16.460Z,15.32
2018-02-23T19:52:43.993Z,12.18
2018-02-23T19:55:11.607Z,12.95
2018-02-23T19:57:39.186Z,13.55
2018-02-23T20:00:06.864Z,13.98
2018-02-23T20:02:35.187Z,13.30
2018-02-23T20:05:02.743Z,14.15
2018-02-23T20:07:30.392Z,14.10
2018-02-23T20:09:57.941Z,13.15
2018-02-23T20:12:25.543Z,12.00
2018-02-23T20:14:53.122Z,12.65
2018-02-23T20:17:20.692Z,12.05
2018-02-23T20:19:48.308Z,14.35
2018-02-23T20:22:15.930Z,12.15
2018-02-23T20:24:43.532Z,12.10
2018-02-23T20:27:11.178Z,13.07
2018-02-23T20:29:39.143Z,12.82
2018-02-23T20:32:06.752Z,11.60
2018-02-23T20:34:34.311Z,12.20
2018-02-23T20:37:01.923Z,12.02
2018-02-23T20:39:29.495Z,12.37
2018-02-23T20:41:57.203Z,11.00
2018-02-23T20:44:24.861Z,10.82
2018-02-23T20:46:52.420Z,12.75
2018-02-23T20:49:20.033Z,12.27
2018-02-23T20:51:47.609Z,12.88
2018-02-23T20:54:15.324Z,11.32
2018-02-23T20:56:42.943Z,13.38
2018-02-23T20:59:10.548Z,13.40
2018-02-23T21:01:38.246Z,11.68
2018-02-23T21:04:06.954Z,12.15
2018-02-23T21:06:35.366Z,13.13
2018-02-23T21:09:03.314Z,12.40
2018-02-23T21:11:30.891Z,11.02
2018-02-23T21:13:58.504Z,13.57
2018-02-23T21:16:26.085Z,11.48
2018-02-23T21:18:53.678Z,10.93
2018-02-23T21:21:21.368Z,11.40
2018-02-23T21:23:48.935Z,10.20
2018-02-23T21:26:16.529Z,10.90
2018-02-23T21:28:44.149Z,10.00
2018-02-23T21:31:12.648Z,11.43
2018-02-23T21:33:40.246Z,13.23
2018-02-23T21:36:07.833Z,12.02
2018-02-23T21:38:36.100Z,11.85
2018-02-23T21:41:04.480Z,11.88
2018-02-23T21:43:32.089Z,9.75
2018-02-23T21:45:59.637Z,12.45
2018-02-23T21:48:27.202Z,10.88
2018-02-23T21:50:54.779Z,11.60
2018-02-23T21:53:23.526Z,12.35
2018-02-23T21:55:52.098Z,13.35
2018-02-23T21:58:23.680Z,11.75
2018-02-23T22:00:51.318Z,11.15
2018-02-23T22:03:19.753Z,11.38
2018-02-23T22:05:47.318Z,10.02
2018-02-23T22:08:14.949Z,10.85
2018-02-23T22:10:42.871Z,10.55
2018-02-23T22:13:10.488Z,11.15
2018-02-23T22:15:38.112Z,10.88
2018-02-23T22:18:06.375Z,10.88
2018-02-23T22:20:34.062Z,11.55
2018-02-23T22:23:01.633Z,10.55
2018-02-23T22:25:29.217Z,13.20
2018-02-23T22:27:57.269Z,12.10
2018-02-23T22:30:24.938Z,12.60
2018-02-23T22:32:52.542Z,11.18
2018-02-23T22:35:20.238Z,12.98
2018-02-23T22:37:47.881Z,11.27
2018-02-23T22:40:17.865Z,11.70
2018-02-23T22:42:45.564Z,10.35
2018-02-23T22:45:14.009Z,11.98
2018-02-23T22:47:41.628Z,10.45
2018-02-23T22:50:09.247Z,12.73
2018-02-23T22:52:36.814Z,11.30
2018-02-23T22:55:04.360Z,11.77
2018-02-23T22:57:31.932Z,12.35
2018-02-23T23:00:00.844Z,10.35
2018-02-23T23:02:28.475Z,12.00
2018-02-23T23:04:56.106Z,12.65
2018-02-23T23:07:23.778Z,12.95
2018-02-23T23:09:51.366Z,10.07
2018-02-23T23:12:19.918Z,11.45
2018-02-23T23:14:48.273Z,10.70
2018-02-23T23:17:17.108Z,11.32
2018-02-23T23:19:45.301Z,10.68
2018-02-23T23:22:12.920Z,12.10
2018-02-23T23:24:40.621Z,11.48
2018-02-23T23:27:08.332Z,13.20
2018-02-23T23:29:40.011Z,11.70
2018-02-23T23:32:13.530Z,10.57
2018-02-23T23:34:41.226Z,11.07
2018-02-23T23:37:08.854Z,12.10
2018-02-23T23:39:37.190Z,13.13
2018-02-23T23:42:06.111Z,11.45
2018-02-23T23:44:35.090Z,13.07
2018-02-23T23:47:03.541Z,12.93
2018-02-23T23:49:45.162Z,12.65
2018-02-23T23:52:14.425Z,11.68
2018-02-23T23:54:42.637Z,11.60
2018-02-23T23:57:11.891Z,11.77
2018-02-23T23:59:39.523Z,12.95
